sensor_id;sensor_type;location;lat;lon;timestamp;temperature;humidity
2763;DHT22;1389;51.490;7.338;2023-04-06T00:01:07;3.80;76.00
2763;DHT22;1389;51.490;7.338;2023-04-06T00:03:34;3.70;76.20
2763;DHT22;1389;51.490;7.338;2023-04-06T00:06:00;3.60;76.20
2763;DHT22;1389;51.490;7.338;2023-04-06T00:08:27;3.60;76.10
2763;DHT22;1389;51.490;7.338;2023-04-06T00:10:53;3.60;76.40
2763;DHT22;1389;51.490;7.338;2023-04-06T00:13:19;3.60;76.30
2763;DHT22;1389;51.490;7.338;2023-04-06T00:15:45;3.60;76.20
2763;DHT22;1389;51.490;7.338;2023-04-06T00:18:11;3.60;76.40
2763;DHT22;1389;51.490;7.338;2023-04-06T00:20:37;3.60;76.30
2763;DHT22;1389;51.490;7.338;2023-04-06T00:23:03;3.60;76.40
2763;DHT22;1389;51.490;7.338;2023-04-06T00:27:56;3.60;76.40
2763;DHT22;1389;51.490;7.338;2023-04-06T00:30:22;3.60;76.60
2763;DHT22;1389;51.490;7.338;2023-04-06T00:35:14;3.40;77.20
2763;DHT22;1389;51.490;7.338;2023-04-06T00:37:41;3.30;77.40
2763;DHT22;1389;51.490;7.338;2023-04-06T00:40:08;3.30;77.70
2763;DHT22;1389;51.490;7.338;2023-04-06T00:42:34;3.20;78.00
2763;DHT22;1389;51.490;7.338;2023-04-06T00:45:01;3.20;78.10
2763;DHT22;1389;51.490;7.338;2023-04-06T00:47:27;3.20;78.10
2763;DHT22;1389;51.490;7.338;2023-04-06T00:49:54;3.20;78.10
2763;DHT22;1389;51.490;7.338;2023-04-06T00:52:21;3.20;77.40
2763;DHT22;1389;51.490;7.338;2023-04-06T00:54:47;3.20;77.50
2763;DHT22;1389;51.490;7.338;2023-04-06T00:57:13;3.20;77.80
2763;DHT22;1389;51.490;7.338;2023-04-06T00:59:40;3.20;77.60
2763;DHT22;1389;51.490;7.338;2023-04-06T01:02:07;3.30;77.10
2763;DHT22;1389;51.490;7.338;2023-04-06T01:04:34;3.40;76.80
2763;DHT22;1389;51.490;7.338;2023-04-06T01:07:00;3.40;76.70
2763;DHT22;1389;51.490;7.338;2023-04-06T01:09:30;3.40;76.90
2763;DHT22;1389;51.490;7.338;2023-04-06T01:11:57;3.40;76.40
2763;DHT22;1389;51.490;7.338;2023-04-06T01:14:24;3.40;76.40
2763;DHT22;1389;51.490;7.338;2023-04-06T01:16:52;3.40;76.30
2763;DHT22;1389;51.490;7.338;2023-04-06T01:19:19;3.40;76.10
2763;DHT22;1389;51.490;7.338;2023-04-06T01:21:46;3.30;76.10
2763;DHT22;1389;51.490;7.338;2023-04-06T01:24:12;3.30;76.20
2763;DHT22;1389;51.490;7.338;2023-04-06T01:26:38;3.30;76.10
2763;DHT22;1389;51.490;7.338;2023-04-06T01:29:05;3.30;76.30
2763;DHT22;1389;51.490;7.338;2023-04-06T01:31:31;3.30;76.40
2763;DHT22;1389;51.490;7.338;2023-04-06T01:33:57;3.20;76.30
2763;DHT22;1389;51.490;7.338;2023-04-06T01:36:23;3.20;76.60
2763;DHT22;1389;51.490;7.338;2023-04-06T01:38:49;3.20;76.70
2763;DHT22;1389;51.490;7.338;2023-04-06T01:41:15;3.20;76.70
2763;DHT22;1389;51.490;7.338;2023-04-06T01:43:41;3.20;77.00
2763;DHT22;1389;51.490;7.338;2023-04-06T01:46:07;3.20;77.10
2763;DHT22;1389;51.490;7.338;2023-04-06T01:48:34;3.20;77.20
2763;DHT22;1389;51.490;7.338;2023-04-06T01:51:00;3.20;77.20
2763;DHT22;1389;51.490;7.338;2023-04-06T01:53:27;3.20;77.20
2763;DHT22;1389;51.490;7.338;2023-04-06T01:55:53;3.20;77.30
2763;DHT22;1389;51.490;7.338;2023-04-06T01:58:19;3.20;77.20
2763;DHT22;1389;51.490;7.338;2023-04-06T02:00:45;3.30;77.30
2763;DHT22;1389;51.490;7.338;2023-04-06T02:03:11;3.30;77.00
2763;DHT22;1389;51.490;7.338;2023-04-06T02:05:37;3.30;76.90
2763;DHT22;1389;51.490;7.338;2023-04-06T02:08:07;3.30;76.70
2763;DHT22;1389;51.490;7.338;2023-04-06T02:10:34;3.30;76.80
2763;DHT22;1389;51.490;7.338;2023-04-06T02:13:00;3.30;77.00
2763;DHT22;1389;51.490;7.338;2023-04-06T02:15:26;3.30;76.70
2763;DHT22;1389;51.490;7.338;2023-04-06T02:17:53;3.40;76.10
2763;DHT22;1389;51.490;7.338;2023-04-06T02:20:19;3.40;76.00
2763;DHT22;1389;51.490;7.338;2023-04-06T02:22:45;3.40;75.90
2763;DHT22;1389;51.490;7.338;2023-04-06T02:25:11;3.40;75.80
2763;DHT22;1389;51.490;7.338;2023-04-06T02:27:37;3.40;75.80
2763;DHT22;1389;51.490;7.338;2023-04-06T02:30:04;3.40;75.70
2763;DHT22;1389;51.490;7.338;2023-04-06T02:32:30;3.40;75.60
2763;DHT22;1389;51.490;7.338;2023-04-06T02:34:56;3.40;75.60
2763;DHT22;1389;51.490;7.338;2023-04-06T02:37:22;3.40;75.60
2763;DHT22;1389;51.490;7.338;2023-04-06T02:39:50;3.40;75.70
2763;DHT22;1389;51.490;7.338;2023-04-06T02:42:16;3.30;76.00
2763;DHT22;1389;51.490;7.338;2023-04-06T02:44:43;3.40;76.00
2763;DHT22;1389;51.490;7.338;2023-04-06T02:47:09;3.40;75.80
2763;DHT22;1389;51.490;7.338;2023-04-06T02:49:35;3.40;75.50
2763;DHT22;1389;51.490;7.338;2023-04-06T02:52:02;3.40;75.50
2763;DHT22;1389;51.490;7.338;2023-04-06T02:54:28;3.40;75.60
2763;DHT22;1389;51.490;7.338;2023-04-06T02:56:55;3.40;75.50
2763;DHT22;1389;51.490;7.338;2023-04-06T02:59:21;3.40;75.20
2763;DHT22;1389;51.490;7.338;2023-04-06T03:01:47;3.40;75.50
2763;DHT22;1389;51.490;7.338;2023-04-06T03:04:13;3.30;75.20
2763;DHT22;1389;51.490;7.338;2023-04-06T03:06:39;3.40;74.90
2763;DHT22;1389;51.490;7.338;2023-04-06T03:09:06;3.30;74.70
2763;DHT22;1389;51.490;7.338;2023-04-06T03:11:32;3.40;74.90
2763;DHT22;1389;51.490;7.338;2023-04-06T03:18:51;3.30;74.60
2763;DHT22;1389;51.490;7.338;2023-04-06T03:21:17;3.30;74.50
2763;DHT22;1389;51.490;7.338;2023-04-06T03:23:45;3.30;74.60
2763;DHT22;1389;51.490;7.338;2023-04-06T03:26:11;3.20;74.50
2763;DHT22;1389;51.490;7.338;2023-04-06T03:28:37;3.20;74.30
2763;DHT22;1389;51.490;7.338;2023-04-06T03:31:03;3.20;74.40
2763;DHT22;1389;51.490;7.338;2023-04-06T03:33:29;3.30;74.60
2763;DHT22;1389;51.490;7.338;2023-04-06T03:35:55;3.20;74.60
2763;DHT22;1389;51.490;7.338;2023-04-06T03:38:21;3.20;74.60
2763;DHT22;1389;51.490;7.338;2023-04-06T03:43:14;3.20;74.80
2763;DHT22;1389;51.490;7.338;2023-04-06T03:45:40;3.20;74.60
2763;DHT22;1389;51.490;7.338;2023-04-06T03:48:06;3.20;74.70
2763;DHT22;1389;51.490;7.338;2023-04-06T03:50:32;3.20;74.60
2763;DHT22;1389;51.490;7.338;2023-04-06T03:52:58;3.20;74.80
2763;DHT22;1389;51.490;7.338;2023-04-06T03:55:24;3.10;75.00
2763;DHT22;1389;51.490;7.338;2023-04-06T03:57:50;3.10;75.20
2763;DHT22;1389;51.490;7.338;2023-04-06T04:00:16;3.20;75.10
2763;DHT22;1389;51.490;7.338;2023-04-06T04:02:42;3.20;75.20
2763;DHT22;1389;51.490;7.338;2023-04-06T04:05:09;3.20;75.20
2763;DHT22;1389;51.490;7.338;2023-04-06T04:07:35;3.20;75.20
2763;DHT22;1389;51.490;7.338;2023-04-06T04:10:01;3.20;75.00
2763;DHT22;1389;51.490;7.338;2023-04-06T04:12:27;3.20;75.10
2763;DHT22;1389;51.490;7.338;2023-04-06T04:14:53;3.20;74.80
2763;DHT22;1389;51.490;7.338;2023-04-06T04:17:19;3.20;74.70
2763;DHT22;1389;51.490;7.338;2023-04-06T04:19:45;3.20;74.80
2763;DHT22;1389;51.490;7.338;2023-04-06T04:22:11;3.20;75.00
2763;DHT22;1389;51.490;7.338;2023-04-06T04:24:37;3.20;75.20
2763;DHT22;1389;51.490;7.338;2023-04-06T04:27:03;3.20;75.00
2763;DHT22;1389;51.490;7.338;2023-04-06T04:29:30;3.10;75.30
2763;DHT22;1389;51.490;7.338;2023-04-06T04:31:56;3.10;75.10
2763;DHT22;1389;51.490;7.338;2023-04-06T04:34:22;3.10;75.00
2763;DHT22;1389;51.490;7.338;2023-04-06T04:36:52;3.10;75.20
2763;DHT22;1389;51.490;7.338;2023-04-06T04:39:18;3.10;75.00
2763;DHT22;1389;51.490;7.338;2023-04-06T04:41:44;3.10;75.10
2763;DHT22;1389;51.490;7.338;2023-04-06T04:44:10;3.10;75.30
2763;DHT22;1389;51.490;7.338;2023-04-06T04:46:37;3.10;75.40
2763;DHT22;1389;51.490;7.338;2023-04-06T04:49:03;3.10;75.30
2763;DHT22;1389;51.490;7.338;2023-04-06T04:51:29;3.10;75.40
2763;DHT22;1389;51.490;7.338;2023-04-06T04:53:56;3.10;75.50
2763;DHT22;1389;51.490;7.338;2023-04-06T04:56:22;3.10;75.50
2763;DHT22;1389;51.490;7.338;2023-04-06T04:58:48;3.10;75.80
2763;DHT22;1389;51.490;7.338;2023-04-06T05:01:14;3.10;75.70
2763;DHT22;1389;51.490;7.338;2023-04-06T05:03:40;3.10;75.40
2763;DHT22;1389;51.490;7.338;2023-04-06T05:06:07;3.10;75.60
2763;DHT22;1389;51.490;7.338;2023-04-06T05:08:33;3.10;75.50
2763;DHT22;1389;51.490;7.338;2023-04-06T05:10:59;3.10;75.60
2763;DHT22;1389;51.490;7.338;2023-04-06T05:13:25;3.10;75.60
2763;DHT22;1389;51.490;7.338;2023-04-06T05:15:51;3.10;75.30
2763;DHT22;1389;51.490;7.338;2023-04-06T05:18:17;3.10;75.20
2763;DHT22;1389;51.490;7.338;2023-04-06T05:20:43;3.20;75.30
2763;DHT22;1389;51.490;7.338;2023-04-06T05:25:36;3.20;75.20
2763;DHT22;1389;51.490;7.338;2023-04-06T05:28:02;3.10;75.50
2763;DHT22;1389;51.490;7.338;2023-04-06T05:30:29;3.10;75.50
2763;DHT22;1389;51.490;7.338;2023-04-06T05:32:55;3.20;75.50
2763;DHT22;1389;51.490;7.338;2023-04-06T05:35:21;3.20;75.20
2763;DHT22;1389;51.490;7.338;2023-04-06T05:37:47;3.20;75.40
2763;DHT22;1389;51.490;7.338;2023-04-06T05:40:13;3.20;75.90
2763;DHT22;1389;51.490;7.338;2023-04-06T05:42:40;3.20;76.40
2763;DHT22;1389;51.490;7.338;2023-04-06T05:45:08;3.30;76.10
2763;DHT22;1389;51.490;7.338;2023-04-06T05:47:34;3.30;76.10
2763;DHT22;1389;51.490;7.338;2023-04-06T05:50:01;3.30;75.70
2763;DHT22;1389;51.490;7.338;2023-04-06T05:52:27;3.30;75.70
2763;DHT22;1389;51.490;7.338;2023-04-06T05:54:53;3.40;75.90
2763;DHT22;1389;51.490;7.338;2023-04-06T05:57:19;3.40;75.90
2763;DHT22;1389;51.490;7.338;2023-04-06T05:59:45;3.40;75.60
2763;DHT22;1389;51.490;7.338;2023-04-06T06:02:11;3.50;75.80
2763;DHT22;1389;51.490;7.338;2023-04-06T06:04:37;3.60;75.70
2763;DHT22;1389;51.490;7.338;2023-04-06T06:07:03;3.60;75.80
2763;DHT22;1389;51.490;7.338;2023-04-06T06:09:29;3.60;75.70
2763;DHT22;1389;51.490;7.338;2023-04-06T06:11:55;3.70;75.60
2763;DHT22;1389;51.490;7.338;2023-04-06T06:14:21;3.80;75.70
2763;DHT22;1389;51.490;7.338;2023-04-06T06:16:48;3.90;75.10
2763;DHT22;1389;51.490;7.338;2023-04-06T06:19:14;4.00;74.90
2763;DHT22;1389;51.490;7.338;2023-04-06T06:21:40;4.00;74.90
2763;DHT22;1389;51.490;7.338;2023-04-06T06:24:07;4.10;74.40
2763;DHT22;1389;51.490;7.338;2023-04-06T06:26:33;4.20;73.70
2763;DHT22;1389;51.490;7.338;2023-04-06T06:29:01;4.40;73.40
2763;DHT22;1389;51.490;7.338;2023-04-06T06:31:27;4.40;73.20
2763;DHT22;1389;51.490;7.338;2023-04-06T06:33:53;4.50;72.80
2763;DHT22;1389;51.490;7.338;2023-04-06T06:36:19;4.60;72.80
2763;DHT22;1389;51.490;7.338;2023-04-06T06:38:45;4.70;72.30
2763;DHT22;1389;51.490;7.338;2023-04-06T06:41:11;4.80;72.00
2763;DHT22;1389;51.490;7.338;2023-04-06T06:43:38;4.90;71.00
2763;DHT22;1389;51.490;7.338;2023-04-06T06:46:04;5.00;71.10
2763;DHT22;1389;51.490;7.338;2023-04-06T06:48:31;5.10;70.50
2763;DHT22;1389;51.490;7.338;2023-04-06T06:50:57;5.20;69.90
2763;DHT22;1389;51.490;7.338;2023-04-06T06:53:24;5.30;69.70
2763;DHT22;1389;51.490;7.338;2023-04-06T06:55:50;5.40;69.60
2763;DHT22;1389;51.490;7.338;2023-04-06T06:58:18;5.50;69.30
2763;DHT22;1389;51.490;7.338;2023-04-06T07:00:45;5.60;67.60
2763;DHT22;1389;51.490;7.338;2023-04-06T07:03:11;5.70;66.70
2763;DHT22;1389;51.490;7.338;2023-04-06T07:05:37;5.80;67.00
2763;DHT22;1389;51.490;7.338;2023-04-06T07:08:03;5.90;67.20
2763;DHT22;1389;51.490;7.338;2023-04-06T07:10:30;6.00;66.60
2763;DHT22;1389;51.490;7.338;2023-04-06T07:12:56;6.20;65.40
2763;DHT22;1389;51.490;7.338;2023-04-06T07:15:22;6.30;65.70
2763;DHT22;1389;51.490;7.338;2023-04-06T07:17:48;6.40;65.70
2763;DHT22;1389;51.490;7.338;2023-04-06T07:20:15;6.50;64.10
2763;DHT22;1389;51.490;7.338;2023-04-06T07:22:42;6.60;64.30
2763;DHT22;1389;51.490;7.338;2023-04-06T07:25:09;6.60;63.70
2763;DHT22;1389;51.490;7.338;2023-04-06T07:27:35;6.80;61.80
2763;DHT22;1389;51.490;7.338;2023-04-06T07:30:01;6.90;61.90
2763;DHT22;1389;51.490;7.338;2023-04-06T07:32:28;6.90;62.40
2763;DHT22;1389;51.490;7.338;2023-04-06T07:34:54;7.00;62.30
2763;DHT22;1389;51.490;7.338;2023-04-06T07:37:20;7.10;62.50
2763;DHT22;1389;51.490;7.338;2023-04-06T07:39:46;7.30;62.10
2763;DHT22;1389;51.490;7.338;2023-04-06T07:42:12;7.30;62.10
2763;DHT22;1389;51.490;7.338;2023-04-06T07:44:38;7.50;61.40
2763;DHT22;1389;51.490;7.338;2023-04-06T07:47:04;7.50;61.40
2763;DHT22;1389;51.490;7.338;2023-04-06T07:49:30;7.50;60.90
2763;DHT22;1389;51.490;7.338;2023-04-06T07:51:58;7.50;62.10
2763;DHT22;1389;51.490;7.338;2023-04-06T07:54:24;7.50;62.00
2763;DHT22;1389;51.490;7.338;2023-04-06T07:56:50;7.50;62.30
2763;DHT22;1389;51.490;7.338;2023-04-06T07:59:16;7.70;62.60
2763;DHT22;1389;51.490;7.338;2023-04-06T08:01:42;7.80;62.50
2763;DHT22;1389;51.490;7.338;2023-04-06T08:04:08;8.00;60.90
2763;DHT22;1389;51.490;7.338;2023-04-06T08:06:34;8.30;59.70
2763;DHT22;1389;51.490;7.338;2023-04-06T08:09:00;8.30;59.60
2763;DHT22;1389;51.490;7.338;2023-04-06T08:11:26;8.30;59.70
2763;DHT22;1389;51.490;7.338;2023-04-06T08:13:54;8.40;60.40
2763;DHT22;1389;51.490;7.338;2023-04-06T08:16:21;8.40;59.90
2763;DHT22;1389;51.490;7.338;2023-04-06T08:18:47;8.50;59.00
2763;DHT22;1389;51.490;7.338;2023-04-06T08:21:13;8.60;59.30
2763;DHT22;1389;51.490;7.338;2023-04-06T08:23:39;8.60;59.10
2763;DHT22;1389;51.490;7.338;2023-04-06T08:26:06;8.60;59.10
2763;DHT22;1389;51.490;7.338;2023-04-06T08:28:32;8.70;59.70
2763;DHT22;1389;51.490;7.338;2023-04-06T08:31:04;8.70;59.40
2763;DHT22;1389;51.490;7.338;2023-04-06T08:33:31;8.70;59.60
2763;DHT22;1389;51.490;7.338;2023-04-06T08:35:57;8.80;60.90
2763;DHT22;1389;51.490;7.338;2023-04-06T08:38:23;8.90;59.30
2763;DHT22;1389;51.490;7.338;2023-04-06T08:40:49;9.00;58.30
2763;DHT22;1389;51.490;7.338;2023-04-06T08:43:19;9.20;59.10
2763;DHT22;1389;51.490;7.338;2023-04-06T08:45:47;9.50;58.50
2763;DHT22;1389;51.490;7.338;2023-04-06T08:48:14;9.60;59.00
2763;DHT22;1389;51.490;7.338;2023-04-06T08:50:41;9.80;58.20
2763;DHT22;1389;51.490;7.338;2023-04-06T08:53:07;9.90;57.40
2763;DHT22;1389;51.490;7.338;2023-04-06T08:55:34;10.00;57.00
2763;DHT22;1389;51.490;7.338;2023-04-06T08:58:01;10.10;57.10
2763;DHT22;1389;51.490;7.338;2023-04-06T09:00:28;10.30;56.40
2763;DHT22;1389;51.490;7.338;2023-04-06T09:02:55;10.40;55.00
2763;DHT22;1389;51.490;7.338;2023-04-06T09:05:24;10.50;55.70
2763;DHT22;1389;51.490;7.338;2023-04-06T09:07:51;10.70;56.70
2763;DHT22;1389;51.490;7.338;2023-04-06T09:10:17;10.80;54.30
2763;DHT22;1389;51.490;7.338;2023-04-06T09:12:44;10.90;55.00
2763;DHT22;1389;51.490;7.338;2023-04-06T09:15:20;10.90;54.90
2763;DHT22;1389;51.490;7.338;2023-04-06T09:17:47;10.90;54.80
2763;DHT22;1389;51.490;7.338;2023-04-06T09:20:13;10.90;54.30
2763;DHT22;1389;51.490;7.338;2023-04-06T09:22:40;11.00;54.40
2763;DHT22;1389;51.490;7.338;2023-04-06T09:25:07;11.20;55.20
2763;DHT22;1389;51.490;7.338;2023-04-06T09:27:36;11.30;54.10
2763;DHT22;1389;51.490;7.338;2023-04-06T09:32:49;11.20;53.70
2763;DHT22;1389;51.490;7.338;2023-04-06T09:35:17;11.20;54.20
2763;DHT22;1389;51.490;7.338;2023-04-06T09:37:44;11.30;53.50
2763;DHT22;1389;51.490;7.338;2023-04-06T09:40:10;11.40;52.40
2763;DHT22;1389;51.490;7.338;2023-04-06T09:42:36;11.30;51.90
2763;DHT22;1389;51.490;7.338;2023-04-06T09:45:03;11.40;52.50
2763;DHT22;1389;51.490;7.338;2023-04-06T09:47:30;11.50;52.80
2763;DHT22;1389;51.490;7.338;2023-04-06T09:49:59;11.50;53.60
2763;DHT22;1389;51.490;7.338;2023-04-06T09:52:51;11.60;53.20
2763;DHT22;1389;51.490;7.338;2023-04-06T09:55:40;11.50;52.90
2763;DHT22;1389;51.490;7.338;2023-04-06T09:58:10;11.60;54.30
2763;DHT22;1389;51.490;7.338;2023-04-06T10:00:48;11.60;52.80
2763;DHT22;1389;51.490;7.338;2023-04-06T10:06:22;11.50;53.10
2763;DHT22;1389;51.490;7.338;2023-04-06T10:08:50;11.60;53.10
2763;DHT22;1389;51.490;7.338;2023-04-06T10:11:17;11.50;52.20
2763;DHT22;1389;51.490;7.338;2023-04-06T10:13:45;11.50;52.30
2763;DHT22;1389;51.490;7.338;2023-04-06T10:16:14;11.50;51.90
2763;DHT22;1389;51.490;7.338;2023-04-06T10:18:45;11.50;51.90
2763;DHT22;1389;51.490;7.338;2023-04-06T10:21:14;11.60;53.60
2763;DHT22;1389;51.490;7.338;2023-04-06T10:26:15;11.90;53.10
2763;DHT22;1389;51.490;7.338;2023-04-06T10:41:37;12.90;51.60
2763;DHT22;1389;51.490;7.338;2023-04-06T10:46:53;13.10;51.10
2763;DHT22;1389;51.490;7.338;2023-04-06T10:49:20;13.10;52.00
2763;DHT22;1389;51.490;7.338;2023-04-06T10:51:51;13.10;52.00
2763;DHT22;1389;51.490;7.338;2023-04-06T10:59:11;13.10;52.40
2763;DHT22;1389;51.490;7.338;2023-04-06T11:04:04;12.90;51.80
2763;DHT22;1389;51.490;7.338;2023-04-06T11:06:30;13.00;49.20
2763;DHT22;1389;51.490;7.338;2023-04-06T11:08:59;13.00;48.80
2763;DHT22;1389;51.490;7.338;2023-04-06T11:11:26;13.00;49.60
2763;DHT22;1389;51.490;7.338;2023-04-06T11:13:54;13.00;49.90
2763;DHT22;1389;51.490;7.338;2023-04-06T11:16:29;13.10;50.50
2763;DHT22;1389;51.490;7.338;2023-04-06T11:18:57;13.20;50.10
2763;DHT22;1389;51.490;7.338;2023-04-06T11:21:37;13.20;50.80
2763;DHT22;1389;51.490;7.338;2023-04-06T11:26:37;13.20;47.60
2763;DHT22;1389;51.490;7.338;2023-04-06T11:29:04;13.10;48.60
2763;DHT22;1389;51.490;7.338;2023-04-06T11:31:30;13.00;48.60
2763;DHT22;1389;51.490;7.338;2023-04-06T11:33:57;13.10;48.00
2763;DHT22;1389;51.490;7.338;2023-04-06T11:36:23;13.20;49.50
2763;DHT22;1389;51.490;7.338;2023-04-06T11:38:49;13.30;48.80
2763;DHT22;1389;51.490;7.338;2023-04-06T11:41:15;13.30;49.00
2763;DHT22;1389;51.490;7.338;2023-04-06T11:43:47;13.40;49.10
2763;DHT22;1389;51.490;7.338;2023-04-06T11:46:18;13.50;49.90
2763;DHT22;1389;51.490;7.338;2023-04-06T11:48:46;13.50;48.80
2763;DHT22;1389;51.490;7.338;2023-04-06T11:51:21;13.50;49.60
2763;DHT22;1389;51.490;7.338;2023-04-06T11:53:48;13.50;49.60
2763;DHT22;1389;51.490;7.338;2023-04-06T11:56:28;13.50;50.60
2763;DHT22;1389;51.490;7.338;2023-04-06T11:58:56;13.50;50.70
2763;DHT22;1389;51.490;7.338;2023-04-06T12:01:23;13.50;49.70
2763;DHT22;1389;51.490;7.338;2023-04-06T12:03:50;13.50;49.90
2763;DHT22;1389;51.490;7.338;2023-04-06T12:06:17;13.60;50.10
2763;DHT22;1389;51.490;7.338;2023-04-06T12:08:43;13.60;50.10
2763;DHT22;1389;51.490;7.338;2023-04-06T12:11:11;13.60;50.40
2763;DHT22;1389;51.490;7.338;2023-04-06T12:13:37;13.70;48.60
2763;DHT22;1389;51.490;7.338;2023-04-06T12:16:03;13.60;48.30
2763;DHT22;1389;51.490;7.338;2023-04-06T12:18:30;13.60;49.30
2763;DHT22;1389;51.490;7.338;2023-04-06T12:20:56;13.60;49.30
2763;DHT22;1389;51.490;7.338;2023-04-06T12:23:22;13.60;50.10
2763;DHT22;1389;51.490;7.338;2023-04-06T12:25:48;13.70;50.20
2763;DHT22;1389;51.490;7.338;2023-04-06T12:30:41;13.70;49.00
2763;DHT22;1389;51.490;7.338;2023-04-06T12:33:07;13.70;48.50
2763;DHT22;1389;51.490;7.338;2023-04-06T12:35:33;13.80;49.50
2763;DHT22;1389;51.490;7.338;2023-04-06T12:37:59;13.80;48.80
2763;DHT22;1389;51.490;7.338;2023-04-06T12:40:25;13.70;50.10
2763;DHT22;1389;51.490;7.338;2023-04-06T12:42:51;13.80;50.30
2763;DHT22;1389;51.490;7.338;2023-04-06T12:45:18;13.80;50.80
2763;DHT22;1389;51.490;7.338;2023-04-06T12:47:44;13.90;51.80
2763;DHT22;1389;51.490;7.338;2023-04-06T12:50:10;14.00;51.70
2763;DHT22;1389;51.490;7.338;2023-04-06T12:52:36;14.10;51.20
2763;DHT22;1389;51.490;7.338;2023-04-06T12:55:03;14.10;52.20
2763;DHT22;1389;51.490;7.338;2023-04-06T12:57:30;14.10;49.90
2763;DHT22;1389;51.490;7.338;2023-04-06T12:59:57;14.10;50.60
2763;DHT22;1389;51.490;7.338;2023-04-06T13:02:23;14.10;50.20
2763;DHT22;1389;51.490;7.338;2023-04-06T13:04:50;14.10;50.70
2763;DHT22;1389;51.490;7.338;2023-04-06T13:07:16;14.10;51.40
2763;DHT22;1389;51.490;7.338;2023-04-06T13:09:42;14.10;51.60
2763;DHT22;1389;51.490;7.338;2023-04-06T13:12:08;14.00;51.70
2763;DHT22;1389;51.490;7.338;2023-04-06T13:14:34;14.00;52.50
2763;DHT22;1389;51.490;7.338;2023-04-06T13:17:00;14.00;51.60
2763;DHT22;1389;51.490;7.338;2023-04-06T13:19:27;14.00;51.60
2763;DHT22;1389;51.490;7.338;2023-04-06T13:21:53;14.00;50.50
2763;DHT22;1389;51.490;7.338;2023-04-06T13:24:19;14.00;49.90
2763;DHT22;1389;51.490;7.338;2023-04-06T13:26:45;13.90;50.10
2763;DHT22;1389;51.490;7.338;2023-04-06T13:29:11;13.90;49.70
2763;DHT22;1389;51.490;7.338;2023-04-06T13:31:37;13.80;50.00
2763;DHT22;1389;51.490;7.338;2023-04-06T13:34:04;13.70;50.80
2763;DHT22;1389;51.490;7.338;2023-04-06T13:36:31;13.80;51.80
2763;DHT22;1389;51.490;7.338;2023-04-06T13:38:58;13.70;50.30
2763;DHT22;1389;51.490;7.338;2023-04-06T13:41:25;13.70;50.90
2763;DHT22;1389;51.490;7.338;2023-04-06T13:43:52;13.70;51.80
2763;DHT22;1389;51.490;7.338;2023-04-06T13:46:18;13.60;51.40
2763;DHT22;1389;51.490;7.338;2023-04-06T13:48:44;13.50;52.10
2763;DHT22;1389;51.490;7.338;2023-04-06T13:51:12;13.50;52.40
2763;DHT22;1389;51.490;7.338;2023-04-06T13:53:38;13.50;51.80
2763;DHT22;1389;51.490;7.338;2023-04-06T13:56:05;13.50;52.60
2763;DHT22;1389;51.490;7.338;2023-04-06T13:58:32;13.60;52.60
2763;DHT22;1389;51.490;7.338;2023-04-06T14:01:06;13.60;52.80
2763;DHT22;1389;51.490;7.338;2023-04-06T14:03:33;13.50;52.90
2763;DHT22;1389;51.490;7.338;2023-04-06T14:05:59;13.40;53.10
2763;DHT22;1389;51.490;7.338;2023-04-06T14:08:25;13.40;53.70
2763;DHT22;1389;51.490;7.338;2023-04-06T14:10:51;13.40;53.70
2763;DHT22;1389;51.490;7.338;2023-04-06T14:13:17;13.40;53.00
2763;DHT22;1389;51.490;7.338;2023-04-06T14:15:44;13.40;52.30
2763;DHT22;1389;51.490;7.338;2023-04-06T14:18:10;13.30;53.00
2763;DHT22;1389;51.490;7.338;2023-04-06T14:20:37;13.20;53.40
2763;DHT22;1389;51.490;7.338;2023-04-06T14:23:03;13.20;54.40
2763;DHT22;1389;51.490;7.338;2023-04-06T14:25:29;13.20;54.30
2763;DHT22;1389;51.490;7.338;2023-04-06T14:28:00;13.20;53.30
2763;DHT22;1389;51.490;7.338;2023-04-06T14:30:27;13.20;54.00
2763;DHT22;1389;51.490;7.338;2023-04-06T14:32:56;13.10;54.20
2763;DHT22;1389;51.490;7.338;2023-04-06T14:35:22;13.10;54.50
2763;DHT22;1389;51.490;7.338;2023-04-06T14:37:49;13.10;55.10
2763;DHT22;1389;51.490;7.338;2023-04-06T14:40:15;13.20;55.10
2763;DHT22;1389;51.490;7.338;2023-04-06T14:42:41;13.20;54.60
2763;DHT22;1389;51.490;7.338;2023-04-06T14:45:07;13.20;54.70
2763;DHT22;1389;51.490;7.338;2023-04-06T14:47:33;13.20;54.60
2763;DHT22;1389;51.490;7.338;2023-04-06T14:50:00;13.10;54.00
2763;DHT22;1389;51.490;7.338;2023-04-06T14:52:26;13.10;55.00
2763;DHT22;1389;51.490;7.338;2023-04-06T14:54:52;13.10;55.30
2763;DHT22;1389;51.490;7.338;2023-04-06T14:57:18;13.00;55.90
2763;DHT22;1389;51.490;7.338;2023-04-06T14:59:44;13.00;56.10
2763;DHT22;1389;51.490;7.338;2023-04-06T15:02:10;12.90;57.20
2763;DHT22;1389;51.490;7.338;2023-04-06T15:04:36;12.90;57.10
2763;DHT22;1389;51.490;7.338;2023-04-06T15:07:02;12.70;58.00
2763;DHT22;1389;51.490;7.338;2023-04-06T15:09:28;12.70;58.20
2763;DHT22;1389;51.490;7.338;2023-04-06T15:11:55;12.60;58.80
2763;DHT22;1389;51.490;7.338;2023-04-06T15:14:21;12.60;58.90
2763;DHT22;1389;51.490;7.338;2023-04-06T15:16:47;12.60;59.60
2763;DHT22;1389;51.490;7.338;2023-04-06T15:19:13;12.60;60.00
2763;DHT22;1389;51.490;7.338;2023-04-06T15:21:39;12.60;60.00
2763;DHT22;1389;51.490;7.338;2023-04-06T15:24:05;12.60;60.00
2763;DHT22;1389;51.490;7.338;2023-04-06T15:26:35;12.50;60.20
2763;DHT22;1389;51.490;7.338;2023-04-06T15:29:03;12.40;60.50
2763;DHT22;1389;51.490;7.338;2023-04-06T15:31:29;12.50;61.00
2763;DHT22;1389;51.490;7.338;2023-04-06T15:33:55;12.50;60.30
2763;DHT22;1389;51.490;7.338;2023-04-06T15:36:26;12.40;61.30
2763;DHT22;1389;51.490;7.338;2023-04-06T15:38:57;12.40;61.50
2763;DHT22;1389;51.490;7.338;2023-04-06T15:41:24;12.30;61.20
2763;DHT22;1389;51.490;7.338;2023-04-06T15:43:52;12.30;61.60
2763;DHT22;1389;51.490;7.338;2023-04-06T15:46:18;12.20;62.60
2763;DHT22;1389;51.490;7.338;2023-04-06T15:48:45;12.10;62.70
2763;DHT22;1389;51.490;7.338;2023-04-06T15:51:11;12.10;61.70
2763;DHT22;1389;51.490;7.338;2023-04-06T15:53:37;12.10;62.40
2763;DHT22;1389;51.490;7.338;2023-04-06T15:56:04;12.00;62.80
2763;DHT22;1389;51.490;7.338;2023-04-06T15:58:34;12.00;64.30
2763;DHT22;1389;51.490;7.338;2023-04-06T16:01:05;12.00;64.90
2763;DHT22;1389;51.490;7.338;2023-04-06T16:03:35;12.00;65.00
2763;DHT22;1389;51.490;7.338;2023-04-06T16:06:01;11.90;64.80
2763;DHT22;1389;51.490;7.338;2023-04-06T16:08:27;11.90;64.30
2763;DHT22;1389;51.490;7.338;2023-04-06T16:10:53;11.90;64.60
2763;DHT22;1389;51.490;7.338;2023-04-06T16:13:19;11.80;64.90
2763;DHT22;1389;51.490;7.338;2023-04-06T16:15:49;11.80;65.50
2763;DHT22;1389;51.490;7.338;2023-04-06T16:18:15;11.80;64.40
2763;DHT22;1389;51.490;7.338;2023-04-06T16:20:41;11.80;63.60
2763;DHT22;1389;51.490;7.338;2023-04-06T16:23:07;11.70;64.10
2763;DHT22;1389;51.490;7.338;2023-04-06T16:25:33;11.70;64.10
2763;DHT22;1389;51.490;7.338;2023-04-06T16:27:59;11.60;63.90
2763;DHT22;1389;51.490;7.338;2023-04-06T16:30:25;11.60;65.10
2763;DHT22;1389;51.490;7.338;2023-04-06T16:32:55;11.60;65.00
2763;DHT22;1389;51.490;7.338;2023-04-06T16:35:21;11.60;65.60
2763;DHT22;1389;51.490;7.338;2023-04-06T16:37:48;11.50;65.60
2763;DHT22;1389;51.490;7.338;2023-04-06T16:40:14;11.50;65.20
2763;DHT22;1389;51.490;7.338;2023-04-06T16:42:44;11.50;65.70
2763;DHT22;1389;51.490;7.338;2023-04-06T16:45:11;11.50;66.30
2763;DHT22;1389;51.490;7.338;2023-04-06T16:47:38;11.50;65.80
2763;DHT22;1389;51.490;7.338;2023-04-06T16:50:05;11.40;66.50
2763;DHT22;1389;51.490;7.338;2023-04-06T16:52:31;11.40;66.50
2763;DHT22;1389;51.490;7.338;2023-04-06T16:54:57;11.30;67.40
2763;DHT22;1389;51.490;7.338;2023-04-06T16:57:23;11.20;68.10